createdAt,value
2015-09-25T00:00:56.270Z,82
2015-09-25T00:01:56.445Z,81.7
2015-09-25T00:02:56.150Z,81.9
2015-09-25T00:03:56.106Z,81.8
2015-09-25T00:04:56.296Z,81.8
2015-09-25T00:05:56.003Z,81.9
2015-09-25T00:06:55.958Z,82.1
2015-09-25T00:07:55.899Z,82
2015-09-25T00:08:55.854Z,82.1
2015-09-25T00:09:55.795Z,81.7
2015-09-25T00:10:55.735Z,81.7
2015-09-25T00:11:55.691Z,81.9
2015-09-25T00:12:55.646Z,81.9
2015-09-25T00:13:55.586Z,81.8
2015-09-25T00:14:55.542Z,82.4
2015-09-25T00:15:55.483Z,82.3
2015-09-25T00:16:55.439Z,82.7
2015-09-25T00:17:55.378Z,82.2
2015-09-25T00:18:55.351Z,82.6
2015-09-25T00:19:55.306Z,83.1
2015-09-25T00:20:55.231Z,83.4
2015-09-25T00:21:55.171Z,82.9
2015-09-25T00:22:55.127Z,82.5
2015-09-25T00:23:55.067Z,82.2
2015-09-25T00:24:55.023Z,82.1
2015-09-25T00:25:55.213Z,82
2015-09-25T00:26:54.935Z,83.3
2015-09-25T00:27:54.859Z,83
2015-09-25T00:28:54.816Z,82.3
2015-09-25T00:29:54.772Z,82.7
2015-09-25T00:30:54.727Z,82.8
2015-09-25T00:31:54.667Z,82.8
2015-09-25T00:32:54.623Z,82.7
2015-09-25T00:33:54.563Z,82.8
2015-09-25T00:34:54.519Z,83
2015-09-25T00:35:54.460Z,83.8
2015-09-25T00:36:54.430Z,83.6
2015-09-25T00:37:54.352Z,83.6
2015-09-25T00:38:54.308Z,83.2
2015-09-25T00:39:54.249Z,83.1
2015-09-25T00:40:54.189Z,83
2015-09-25T00:41:54.160Z,82.9
2015-09-25T00:42:54.102Z,82.5
2015-09-25T00:43:54.041Z,82.5
2015-09-25T00:44:54.013Z,82.8
2015-09-25T00:45:53.953Z,82.6
2015-09-25T00:46:53.893Z,83
2015-09-25T00:47:53.833Z,82.6
2015-09-25T00:48:53.804Z,83.7
2015-09-25T00:49:53.745Z,83.4
2015-09-25T00:50:53.701Z,82.8
2015-09-25T00:51:53.640Z,82.8
2015-09-25T00:52:53.581Z,83
2015-09-25T00:53:53.537Z,83
2015-09-25T00:54:53.493Z,83
2015-09-25T00:55:53.449Z,83
2015-09-25T00:56:53.390Z,82.5
2015-09-25T00:57:53.329Z,82.4
2015-09-25T00:58:53.285Z,82.2
2015-09-25T00:59:53.225Z,82.1
2015-09-25T01:00:53.197Z,82.1
2015-09-25T01:01:53.121Z,81.9
2015-09-25T01:02:53.093Z,83.2
2015-09-25T01:03:53.034Z,83.3
2015-09-25T01:04:52.990Z,84.6
2015-09-25T01:05:52.929Z,83.5
2015-09-25T01:06:52.885Z,83.6
2015-09-25T01:07:52.841Z,83.8
2015-09-25T01:08:52.765Z,83.5
2015-09-25T01:09:52.721Z,84.2
2015-09-25T01:10:52.678Z,83.7
2015-09-25T01:11:52.617Z,83.9
2015-09-25T01:12:52.589Z,83.8
2015-09-25T01:13:52.514Z,83.5
2015-09-25T01:14:52.470Z,83.4
2015-09-25T01:15:52.410Z,84.2
2015-09-25T01:16:52.365Z,83.6
2015-09-25T01:17:52.555Z,83.5
2015-09-25T01:18:52.277Z,83.1
2015-09-25T01:19:52.217Z,83.1
2015-09-25T01:20:52.173Z,82.9
2015-09-25T01:21:52.114Z,83.7
2015-09-25T01:22:52.069Z,83
2015-09-25T01:23:52.009Z,83.3
2015-09-25T01:24:51.965Z,83.6
2015-09-25T01:25:51.906Z,83.2
2015-09-25T01:26:51.861Z,82.5
2015-09-25T01:27:51.818Z,82.3
2015-09-25T01:28:51.758Z,82
2015-09-25T01:29:51.714Z,81.7
2015-09-25T01:30:51.653Z,81.5
2015-09-25T01:31:51.603Z,81.2
2015-09-25T01:32:51.532Z,81.1
2015-09-25T01:33:51.477Z,81
2015-09-25T01:34:51.407Z,81
2015-09-25T01:35:51.353Z,80.9
2015-09-25T01:36:51.303Z,82.1
2015-09-25T01:37:51.255Z,82
2015-09-25T01:38:51.193Z,82.9
2015-09-25T01:39:51.146Z,82.2
2015-09-25T01:40:51.082Z,82.5
2015-09-25T01:41:51.034Z,82.9
2015-09-25T01:42:50.988Z,82.5
2015-09-25T01:43:50.927Z,82.5
2015-09-25T01:44:50.865Z,82.4
2015-09-25T01:45:50.820Z,82.6
2015-09-25T01:46:50.775Z,82.7
2015-09-25T01:47:50.714Z,82.4
2015-09-25T01:48:50.685Z,82.8
2015-09-25T01:49:50.609Z,83.2
2015-09-25T01:50:50.565Z,83
2015-09-25T01:51:50.754Z,83.3
2015-09-25T01:52:50.461Z,82.9
2015-09-25T01:53:50.416Z,83.5
2015-09-25T01:54:50.373Z,83.7
2015-09-25T01:55:50.328Z,83.5
2015-09-25T01:56:50.502Z,83.6
2015-09-25T01:57:50.209Z,83.5
2015-09-25T01:58:50.148Z,83.5
2015-09-25T01:59:50.120Z,83.1
2015-09-25T02:00:50.061Z,84
2015-09-25T02:01:50.031Z,83.5
2015-09-25T02:02:49.957Z,83.6
2015-09-25T02:03:49.928Z,83.8
2015-09-25T02:04:49.853Z,83.3
2015-09-25T02:05:49.809Z,83.3
2015-09-25T02:06:49.749Z,82.2
2015-09-25T02:07:49.705Z,81.9
2015-09-25T02:08:49.660Z,82
2015-09-25T02:09:49.600Z,82
2015-09-25T02:10:49.556Z,81.9
2015-09-25T02:11:49.497Z,82.3
2015-09-25T02:12:49.453Z,82.3
2015-09-25T02:13:49.393Z,82.3
2015-09-25T02:14:49.364Z,82.4
2015-09-25T02:15:49.305Z,81.9
2015-09-25T02:16:49.495Z,81.8
2015-09-25T02:17:49.200Z,83
2015-09-25T02:18:49.157Z,82.8
2015-09-25T02:19:49.113Z,83
2015-09-25T02:20:49.053Z,84.1
2015-09-25T02:21:49.008Z,84.1
2015-09-25T02:22:48.949Z,83.9
2015-09-25T02:23:48.905Z,84
2015-09-25T02:24:48.844Z,83.9
2015-09-25T02:25:48.801Z,83.7
2015-09-25T02:26:48.741Z,83.6
2015-09-25T02:27:48.696Z,83.5
2015-09-25T02:28:48.653Z,83.8
2015-09-25T02:29:48.593Z,83.8
2015-09-25T02:30:48.549Z,83.9
2015-09-25T02:31:48.489Z,84.3
2015-09-25T02:32:48.445Z,84.4
2015-09-25T02:33:48.401Z,84.3
2015-09-25T02:34:48.590Z,85.1
2015-09-25T02:35:48.296Z,85.1
2015-09-25T02:36:48.237Z,85
2015-09-25T02:37:48.193Z,84.6
2015-09-25T02:38:48.383Z,85.6
2015-09-25T02:39:48.089Z,85.4
2015-09-25T02:40:48.045Z,85
2015-09-25T02:41:47.998Z,85
2015-09-25T02:42:47.938Z,85.7
2015-09-25T02:43:47.878Z,85.2
2015-09-25T02:44:47.850Z,84.8
2015-09-25T02:45:47.790Z,84.8
2015-09-25T02:46:47.731Z,84.8
2015-09-25T02:47:47.687Z,85.4
2015-09-25T02:48:47.657Z,85.4
2015-09-25T02:49:47.597Z,85
2015-09-25T02:50:47.538Z,84.8
2015-09-25T02:51:47.478Z,84.2
2015-09-25T02:52:47.434Z,84.6
2015-09-25T02:53:47.375Z,84.3
2015-09-25T02:54:47.330Z,84
2015-09-25T02:55:47.286Z,84.6
2015-09-25T02:56:47.225Z,83.9
2015-09-25T02:57:47.181Z,83.7
2015-09-25T02:58:47.138Z,83.6
2015-09-25T02:59:47.078Z,83.9
2015-09-25T03:00:47.034Z,84
2015-09-25T03:01:46.975Z,83.7
2015-09-25T03:02:46.930Z,84.9
2015-09-25T03:03:47.120Z,84.6
2015-09-25T03:04:46.826Z,84.5
2015-09-25T03:05:46.782Z,84.2
2015-09-25T03:06:46.722Z,84.2
2015-09-25T03:07:46.678Z,84.2
2015-09-25T03:08:46.619Z,84.3
2015-09-25T03:09:46.574Z,84.3
2015-09-25T03:10:46.764Z,84.2
2015-09-25T03:11:46.486Z,85.1
2015-09-25T03:12:46.458Z,85.6
2015-09-25T03:13:46.366Z,85.3
2015-09-25T03:14:46.338Z,84.5
2015-09-25T03:15:46.278Z,84.6
2015-09-25T03:16:46.233Z,84.8
2015-09-25T03:17:46.190Z,84.7
2015-09-25T03:18:46.129Z,84.6
2015-09-25T03:19:46.070Z,84.9
2015-09-25T03:20:46.027Z,84.6
2015-09-25T03:21:45.966Z,84.4
2015-09-25T03:22:45.921Z,84.3
2015-09-25T03:23:45.878Z,84.8
2015-09-25T03:24:45.835Z,84.8
2015-09-25T03:25:45.758Z,84.6
2015-09-25T03:26:45.965Z,85.1
2015-09-25T03:27:45.670Z,85
2015-09-25T03:28:45.626Z,85.3
2015-09-25T03:29:45.566Z,85.3
2015-09-25T03:30:45.912Z,84.8
2015-09-25T03:31:45.462Z,84.4
2015-09-25T03:32:45.418Z,84.4
2015-09-25T03:33:45.359Z,84.3
2015-09-25T03:34:45.330Z,84.4
2015-09-25T03:35:45.270Z,84.2
2015-09-25T03:36:45.226Z,84
2015-09-25T03:37:45.165Z,83.9
2015-09-25T03:38:45.122Z,83.8
2015-09-25T03:39:45.062Z,83.6
2015-09-25T03:40:45.018Z,83.6
2015-09-25T03:41:44.973Z,83.9
2015-09-25T03:42:44.915Z,83.6
2015-09-25T03:43:44.870Z,83.7
2015-09-25T03:44:44.809Z,83.6
2015-09-25T03:45:44.781Z,83.6
2015-09-25T03:46:44.706Z,83.7
2015-09-25T03:47:44.662Z,83.6
2015-09-25T03:48:44.600Z,83.8
2015-09-25T03:49:44.555Z,83.8
2015-09-25T03:50:44.511Z,83.6
2015-09-25T03:51:44.467Z,84.2
2015-09-25T03:52:44.407Z,85.1
2015-09-25T03:53:44.364Z,85.7
2015-09-25T03:54:44.303Z,85.3
2015-09-25T03:55:44.259Z,85.1
2015-09-25T03:56:44.199Z,85.2
2015-09-25T03:57:44.155Z,85.4
2015-09-25T03:58:44.127Z,86.3
2015-09-25T03:59:44.051Z,86.4
2015-09-25T04:00:44.008Z,86
2015-09-25T04:01:43.947Z,85.8
2015-09-25T04:02:43.919Z,85.5
2015-09-25T04:03:43.858Z,85.3
2015-09-25T04:04:43.816Z,85.1
2015-09-25T04:05:43.755Z,84.9
2015-09-25T04:06:43.992Z,84.8
2015-09-25T04:07:43.652Z,84.6
2015-09-25T04:08:43.623Z,84.6
2015-09-25T04:09:43.672Z,84.6
2015-09-25T04:10:43.503Z,84.4
2015-09-25T04:11:43.460Z,84.6
2015-09-25T04:12:43.400Z,84.3
2015-09-25T04:13:43.355Z,84.2
2015-09-25T04:14:43.296Z,84.1
2015-09-25T04:15:43.251Z,84.2
2015-09-25T04:16:43.207Z,84.7
2015-09-25T04:17:43.163Z,84.9
2015-09-25T04:18:43.104Z,84.8
2015-09-25T04:19:43.059Z,85.1
2015-09-25T04:20:42.999Z,86.4
2015-09-25T04:21:42.955Z,86.8
2015-09-25T04:22:42.896Z,85.9
2015-09-25T04:23:42.852Z,85.8
2015-09-25T04:24:42.807Z,85.7
2015-09-25T04:25:42.763Z,85.7
2015-09-25T04:26:42.704Z,86.1
2015-09-25T04:27:42.643Z,86.3
2015-09-25T04:28:42.615Z,85.8
2015-09-25T04:29:42.540Z,86.3
2015-09-25T04:30:42.512Z,86.3
2015-09-25T04:31:42.451Z,86.6
2015-09-25T04:32:42.407Z,86
2015-09-25T04:33:42.347Z,85.9
2015-09-25T04:34:42.303Z,85.4
2015-09-25T04:35:42.493Z,85.5
2015-09-25T04:36:42.199Z,85.8
2015-09-25T04:37:41.984Z,86
2015-09-25T04:38:42.111Z,85.9
2015-09-25T04:39:42.051Z,86.2
2015-09-25T04:40:41.991Z,86.4
2015-09-25T04:41:41.947Z,85.6
2015-09-25T04:42:41.903Z,86.1
2015-09-25T04:43:41.875Z,86.1
2015-09-25T04:44:41.799Z,85.9
2015-09-25T04:45:41.755Z,85.6
2015-09-25T04:46:41.695Z,85.9
2015-09-25T04:47:41.651Z,85.6
2015-09-25T04:48:41.842Z,85.4
2015-09-25T04:49:41.547Z,85.4
2015-09-25T04:50:41.487Z,85.4
2015-09-25T04:51:41.459Z,86.1
2015-09-25T04:52:41.399Z,86.6
2015-09-25T04:53:41.589Z,86.2
2015-09-25T04:54:41.292Z,86.1
2015-09-25T04:55:41.248Z,86.9
2015-09-25T04:56:41.205Z,86.4
2015-09-25T04:57:41.128Z,85.9
2015-09-25T04:58:41.099Z,85.8
2015-09-25T04:59:41.041Z,85.9
2015-09-25T05:00:40.997Z,85.8
2015-09-25T05:01:40.952Z,86.4
2015-09-25T05:02:40.892Z,86.3
2015-09-25T05:03:40.848Z,86.8
2015-09-25T05:04:40.788Z,86.7
2015-09-25T05:05:40.744Z,86.9
2015-09-25T05:06:40.935Z,86.6
2015-09-25T05:07:40.655Z,86.9
2015-09-25T05:08:40.596Z,87
2015-09-25T05:09:40.552Z,87
2015-09-25T05:10:40.493Z,87.1
2015-09-25T05:11:40.449Z,87.2
2015-09-25T05:12:40.388Z,87.5
2015-09-25T05:13:40.359Z,87.6
2015-09-25T05:14:40.299Z,87
2015-09-25T05:15:40.474Z,86.9
2015-09-25T05:16:40.180Z,86.5
2015-09-25T05:17:40.137Z,86.2
2015-09-25T05:18:40.092Z,86.1
2015-09-25T05:19:40.048Z,85.3
2015-09-25T05:20:39.988Z,86.6
2015-09-25T05:21:40.178Z,86
2015-09-25T05:22:39.900Z,86.5
2015-09-25T05:23:39.840Z,86.5
2015-09-25T05:24:39.796Z,86.4
2015-09-25T05:25:39.736Z,86.4
2015-09-25T05:26:39.692Z,86.2
2015-09-25T05:27:39.632Z,86.3
2015-09-25T05:28:39.588Z,86.2
2015-09-25T05:29:39.545Z,86.6
2015-09-25T05:30:39.500Z,86.3
2015-09-25T05:31:39.440Z,85.9
2015-09-25T05:32:39.396Z,86
2015-09-25T05:33:39.336Z,85.9
2015-09-25T05:34:39.292Z,86
2015-09-25T05:35:39.248Z,86.6
2015-09-25T05:36:39.189Z,86.7
2015-09-25T05:37:39.145Z,86.6
2015-09-25T05:38:39.084Z,87.4
2015-09-25T05:39:39.040Z,88.2
2015-09-25T05:40:38.980Z,87.8
2015-09-25T05:41:38.952Z,87.1
2015-09-25T05:42:38.908Z,86.7
2015-09-25T05:43:38.832Z,86.5
2015-09-25T05:44:38.789Z,86.8
2015-09-25T05:45:38.744Z,86.7
2015-09-25T05:46:38.684Z,86.4
2015-09-25T05:47:38.640Z,85.7
2015-09-25T05:48:38.596Z,85.6
2015-09-25T05:49:38.536Z,85.8
2015-09-25T05:50:38.508Z,86.2
2015-09-25T05:51:38.433Z,85.9
2015-09-25T05:52:38.388Z,85.5
2015-09-25T05:53:38.577Z,85.3
2015-09-25T05:54:38.299Z,85.6
2015-09-25T05:55:38.240Z,85.5
2015-09-25T05:56:38.196Z,85.5
2015-09-25T05:57:38.136Z,85.2
2015-09-25T05:58:38.107Z,85.1
2015-09-25T05:59:38.032Z,85.4
2015-09-25T06:00:37.988Z,86.3
2015-09-25T06:01:37.944Z,86
2015-09-25T06:02:37.884Z,86.1
2015-09-25T06:03:37.840Z,85.9
2015-09-25T06:04:37.796Z,86.4
2015-09-25T06:05:37.736Z,86.3
2015-09-25T06:06:37.739Z,85.9
2015-09-25T06:07:37.630Z,85.4
2015-09-25T06:08:37.585Z,85.4
2015-09-25T06:09:37.540Z,85
2015-09-25T06:10:37.497Z,85
2015-09-25T06:11:37.437Z,84.6
2015-09-25T06:12:37.393Z,84.5
2015-09-25T06:13:37.348Z,84.3
2015-09-25T06:14:37.367Z,84.4
2015-09-25T06:15:37.245Z,85.1
2015-09-25T06:16:37.185Z,84.7
2015-09-25T06:17:37.125Z,84.6
2015-09-25T06:18:37.096Z,84.7
2015-09-25T06:19:37.052Z,84.3
2015-09-25T06:20:36.992Z,84.6
2015-09-25T06:21:36.933Z,84.3
2015-09-25T06:22:36.889Z,84.6
2015-09-25T06:23:36.845Z,85.1
2015-09-25T06:24:36.785Z,85.4
2015-09-25T06:25:36.725Z,85.4
2015-09-25T06:26:36.697Z,85.8
2015-09-25T06:27:36.637Z,85.6
2015-09-25T06:28:36.592Z,85.1
2015-09-25T06:29:36.533Z,84.3
2015-09-25T06:30:36.504Z,84.3
2015-09-25T06:31:36.429Z,84.3
2015-09-25T06:32:36.384Z,84.4
2015-09-25T06:33:36.325Z,84.6
2015-09-25T06:34:36.297Z,83.9
2015-09-25T06:35:36.236Z,83.8
2015-09-25T06:36:36.224Z,84.1
2015-09-25T06:37:36.133Z,84.7
2015-09-25T06:38:36.089Z,84
2015-09-25T06:39:36.028Z,84.5
2015-09-25T06:40:35.985Z,83.6
2015-09-25T06:41:35.941Z,83.9
2015-09-25T06:42:35.896Z,84.2
2015-09-25T06:43:35.836Z,84
2015-09-25T06:44:35.792Z,84.4
2015-09-25T06:45:35.748Z,84
2015-09-25T06:46:35.688Z,84.3
2015-09-25T06:47:35.645Z,84.2
2015-09-25T06:48:35.585Z,84.4
2015-09-25T06:49:35.541Z,83.9
2015-09-25T06:50:35.481Z,84.4
2015-09-25T06:51:35.436Z,84.5
2015-09-25T06:52:35.392Z,84.2
2015-09-25T06:53:35.333Z,84.2
2015-09-25T06:54:35.289Z,84.2
2015-09-25T06:55:35.244Z,84
2015-09-25T06:56:35.185Z,84.1
2015-09-25T06:57:35.375Z,84
2015-09-25T06:58:35.081Z,84
2015-09-25T06:59:35.037Z,84.1
2015-09-25T07:00:34.977Z,83.8
2015-09-25T07:01:34.948Z,84.1
2015-09-25T07:02:34.138Z,84.2
2015-09-25T07:03:34.828Z,84.7
2015-09-25T07:04:34.768Z,84.6
2015-09-25T07:05:34.724Z,83.7
2015-09-25T07:06:34.665Z,83.6
2015-09-25T07:07:34.621Z,84
2015-09-25T07:08:34.577Z,84.2
2015-09-25T07:09:34.517Z,84.4
2015-09-25T07:10:34.473Z,84.3
2015-09-25T07:11:34.412Z,83.9
2015-09-25T07:12:34.368Z,84.2
2015-09-25T07:13:34.325Z,84.3
2015-09-25T07:14:34.262Z,83.8
2015-09-25T07:15:34.218Z,84.3
2015-09-25T07:16:34.159Z,83.9
2015-09-25T07:17:34.114Z,83.8
2015-09-25T07:18:34.070Z,83.8
2015-09-25T07:19:34.026Z,83.1
2015-09-25T07:20:33.966Z,83
2015-09-25T07:21:33.922Z,83
2015-09-25T07:22:33.878Z,83.3
2015-09-25T07:23:33.818Z,83.2
2015-09-25T07:24:34.009Z,82.6
2015-09-25T07:25:33.730Z,81.3
2015-09-25T07:26:33.670Z,81.4
2015-09-25T07:27:33.610Z,82.3
2015-09-25T07:28:33.566Z,81.6
2015-09-25T07:29:33.522Z,81.9
2015-09-25T07:30:33.462Z,82
2015-09-25T07:31:33.402Z,81.3
2015-09-25T07:32:33.358Z,81.6
2015-09-25T07:33:33.314Z,82.1
2015-09-25T07:34:33.269Z,81
2015-09-25T07:35:33.210Z,81
2015-09-25T07:36:33.166Z,80.5
2015-09-25T07:37:33.106Z,80.2
2015-09-25T07:38:33.061Z,80.7
2015-09-25T07:39:33.002Z,81.2
2015-09-25T07:40:32.958Z,80.9
2015-09-25T07:41:32.929Z,80.6
2015-09-25T07:42:32.854Z,80.6
2015-09-25T07:43:32.825Z,80.8
2015-09-25T07:44:32.750Z,80.4
2015-09-25T07:45:32.721Z,80.8
2015-09-25T07:46:32.663Z,79.2
2015-09-25T07:47:32.618Z,79.6
2015-09-25T07:48:32.558Z,80
2015-09-25T07:49:32.514Z,79.4
2015-09-25T07:50:32.454Z,79
2015-09-25T07:51:32.394Z,79.8
2015-09-25T07:52:32.350Z,78.7
2015-09-25T07:53:32.306Z,77.8
2015-09-25T07:54:32.246Z,78.3
2015-09-25T07:55:32.202Z,78.7
2015-09-25T07:56:32.142Z,78.5
2015-09-25T07:57:32.098Z,78.3
2015-09-25T07:58:32.054Z,78.4
2015-09-25T07:59:31.993Z,78.8
2015-09-25T08:00:31.951Z,78.4
2015-09-25T08:01:31.890Z,78.7
2015-09-25T08:02:31.846Z,78.3
2015-09-25T08:03:31.787Z,77.5
2015-09-25T08:04:31.743Z,77.4
2015-09-25T08:05:31.730Z,78
2015-09-25T08:06:31.638Z,77.9
2015-09-25T08:07:31.595Z,77.3
2015-09-25T08:08:31.551Z,78
2015-09-25T08:09:31.490Z,78.1
2015-09-25T08:10:31.431Z,76.6
2015-09-25T08:11:31.386Z,76.9
2015-09-25T08:12:31.342Z,76.7
2015-09-25T08:13:31.282Z,77.6
2015-09-25T08:14:31.223Z,77.1
2015-09-25T08:15:31.179Z,76.3
2015-09-25T08:16:31.119Z,76.5
2015-09-25T08:17:31.075Z,76.1
2015-09-25T08:18:31.045Z,76.8
2015-09-25T08:19:30.983Z,76.5
2015-09-25T08:20:30.924Z,75.7
2015-09-25T08:21:30.864Z,75.3
2015-09-25T08:22:30.820Z,75.3
2015-09-25T08:23:30.760Z,76.1
2015-09-25T08:24:30.716Z,76.4
2015-09-25T08:25:30.656Z,75.5
2015-09-25T08:26:30.627Z,76.1
2015-09-25T08:27:30.567Z,76.2
2015-09-25T08:28:30.508Z,76.5
2015-09-25T08:29:30.479Z,75.6
2015-09-25T08:30:30.420Z,75.2
2015-09-25T08:31:30.594Z,75.6
2015-09-25T08:32:30.316Z,75.1
2015-09-25T08:33:30.271Z,74.4
2015-09-25T08:34:30.212Z,74.3
2015-09-25T08:35:30.183Z,74.7
2015-09-25T08:36:30.108Z,73
2015-09-25T08:37:30.080Z,73.2
2015-09-25T08:38:30.020Z,72.9
2015-09-25T08:39:29.975Z,72.9
2015-09-25T08:40:29.915Z,72
2015-09-25T08:41:29.856Z,73.4
2015-09-25T08:42:29.812Z,73.4
2015-09-25T08:43:29.627Z,74.2
2015-09-25T08:44:29.708Z,73.8
2015-09-25T08:45:29.664Z,74.1
2015-09-25T08:46:29.604Z,74.1
2015-09-25T08:47:29.576Z,74.3
2015-09-25T08:48:29.500Z,74.2
2015-09-25T08:49:29.471Z,74.2
2015-09-25T08:50:29.413Z,73.2
2015-09-25T08:51:29.368Z,73.5
2015-09-25T08:52:29.308Z,72.9
2015-09-25T08:53:29.263Z,72.6
2015-09-25T08:54:29.221Z,72.2
2015-09-25T08:55:29.160Z,72.5
2015-09-25T08:56:29.116Z,72.9
2015-09-25T08:57:29.057Z,72
2015-09-25T08:58:29.012Z,71.7
2015-09-25T08:59:28.968Z,70.2
2015-09-25T09:00:28.940Z,71.3
2015-09-25T09:01:28.865Z,71.3
2015-09-25T09:02:28.820Z,70.7
2015-09-25T09:03:28.760Z,71.1
2015-09-25T09:04:28.715Z,71.4
2015-09-25T09:05:28.671Z,70.5
2015-09-25T09:06:28.612Z,70.4
2015-09-25T09:07:28.568Z,70.7
2015-09-25T09:08:28.508Z,70.7
2015-09-25T09:09:28.464Z,68.5
2015-09-25T09:10:28.419Z,67.9
2015-09-25T09:11:28.376Z,68.6
2015-09-25T09:12:28.315Z,67.8
2015-09-25T09:13:28.256Z,67.9
2015-09-25T09:14:28.212Z,68.2
2015-09-25T09:15:28.168Z,68.6
2015-09-25T09:16:28.109Z,67.5
2015-09-25T09:17:28.064Z,67.3
2015-09-25T09:18:28.020Z,67.4
2015-09-25T09:19:27.976Z,67.4
2015-09-25T09:20:27.916Z,64.8
2015-09-25T09:21:27.872Z,66.8
2015-09-25T09:22:27.812Z,67
2015-09-25T09:23:27.765Z,67.6
2015-09-25T09:24:27.720Z,67.8
2015-09-25T09:25:27.661Z,66.3
2015-09-25T09:26:27.600Z,66.6
2015-09-25T09:27:27.573Z,67.2
2015-09-25T09:28:27.513Z,67.7
2015-09-25T09:29:27.469Z,66.7
2015-09-25T09:30:27.409Z,67
2015-09-25T09:31:27.364Z,67.1
2015-09-25T09:32:27.305Z,67.8
2015-09-25T09:33:27.261Z,67.8
2015-09-25T09:34:27.217Z,68.2
2015-09-25T09:35:27.157Z,69.4
2015-09-25T09:36:27.113Z,68.4
2015-09-25T09:37:27.068Z,68.1
2015-09-25T09:38:27.024Z,67.5
2015-09-25T09:39:26.965Z,68.2
2015-09-25T09:40:26.905Z,69.3
2015-09-25T09:41:26.861Z,68.2
2015-09-25T09:42:26.816Z,68.3
2015-09-25T09:43:26.757Z,68.5
2015-09-25T09:44:26.712Z,68.8
2015-09-25T09:45:26.653Z,68.8
2015-09-25T09:46:26.609Z,68.9
2015-09-25T09:47:26.549Z,66.2
2015-09-25T09:48:26.520Z,67.4
2015-09-25T09:49:26.460Z,67.8
2015-09-25T09:50:26.416Z,66.5
2015-09-25T09:51:26.357Z,64.5
2015-09-25T09:52:26.297Z,64.7
2015-09-25T09:53:26.253Z,64.4
2015-09-25T09:54:26.209Z,65.8
2015-09-25T09:55:26.165Z,64.7
2015-09-25T09:56:26.105Z,63.6
2015-09-25T09:57:26.061Z,64
2015-09-25T09:58:26.017Z,63.6
2015-09-25T09:59:25.957Z,62.9
2015-09-25T10:00:26.147Z,63.4
2015-09-25T10:01:25.868Z,63.3
2015-09-25T10:02:25.809Z,63.9
2015-09-25T10:03:25.749Z,64.3
2015-09-25T10:04:25.704Z,63.3
2015-09-25T10:05:25.661Z,64.1
2015-09-25T10:06:25.601Z,64
2015-09-25T10:07:25.557Z,63.4
2015-09-25T10:08:25.497Z,64.2
2015-09-25T10:09:25.453Z,64
2015-09-25T10:10:25.409Z,64.5
2015-09-25T10:11:25.349Z,63
2015-09-25T10:12:25.305Z,62.7
2015-09-25T10:13:25.245Z,61.2
2015-09-25T10:14:25.200Z,62
2015-09-25T10:15:25.156Z,62.4
2015-09-25T10:16:25.112Z,60.6
2015-09-25T10:17:25.037Z,61
2015-09-25T10:18:25.009Z,61.7
2015-09-25T10:19:24.949Z,61.1
2015-09-25T10:20:24.905Z,59.4
2015-09-25T10:21:25.079Z,60.3
2015-09-25T10:22:24.785Z,60.5
2015-09-25T10:23:24.741Z,61.4
2015-09-25T10:24:24.681Z,62.3
2015-09-25T10:25:24.637Z,62.1
2015-09-25T10:26:24.593Z,62.1
2015-09-25T10:27:24.564Z,63.2
2015-09-25T10:28:24.489Z,62.4
2015-09-25T10:29:24.445Z,63.3
2015-09-25T10:30:24.385Z,64
2015-09-25T10:31:24.341Z,63.6
2015-09-25T10:32:24.278Z,63.4
2015-09-25T10:33:24.078Z,62.4
2015-09-25T10:34:24.190Z,62.5
2015-09-25T10:35:24.145Z,62
2015-09-25T10:36:24.085Z,62.1
2015-09-25T10:37:24.041Z,62.4
2015-09-25T10:38:23.994Z,62.8
2015-09-25T10:39:23.916Z,60
2015-09-25T10:40:23.870Z,61.1
2015-09-25T10:41:23.778Z,62
2015-09-25T10:42:23.731Z,62
2015-09-25T10:43:23.658Z,62
2015-09-25T10:44:23.451Z,62.7
2015-09-25T10:45:23.542Z,61.4
2015-09-25T10:46:23.491Z,61.2
2015-09-25T10:47:23.424Z,61
2015-09-25T10:48:23.375Z,61.6
2015-09-25T10:49:23.329Z,61.8
2015-09-25T10:50:23.284Z,62.1
2015-09-25T10:51:23.237Z,62.8
2015-09-25T10:52:23.174Z,63.3
2015-09-25T10:53:23.113Z,64
2015-09-25T10:54:23.068Z,62.9
2015-09-25T10:55:23.023Z,62.9
2015-09-25T10:56:22.977Z,63.7
2015-09-25T10:57:23.168Z,64.4
2015-09-25T10:58:22.873Z,65.1
2015-09-25T10:59:22.828Z,64.3
2015-09-25T11:00:23.018Z,63.8
2015-09-25T11:01:22.723Z,63.2
2015-09-25T11:02:22.679Z,62.7
2015-09-25T11:03:22.634Z,60.9
2015-09-25T11:04:22.605Z,61.8
2015-09-25T11:05:22.531Z,62.8
2015-09-25T11:06:22.486Z,62.6
2015-09-25T11:07:22.426Z,61.7
2015-09-25T11:08:22.389Z,62.4
2015-09-25T11:09:22.333Z,62.9
2015-09-25T11:10:22.302Z,63.3
2015-09-25T11:11:22.243Z,62.8
2015-09-25T11:12:22.198Z,63.6
2015-09-25T11:13:22.138Z,62.9
2015-09-25T11:14:22.094Z,62.2
2015-09-25T11:15:22.050Z,62.4
2015-09-25T11:16:21.990Z,63.3
2015-09-25T11:17:21.946Z,63.1
2015-09-25T11:18:21.917Z,63.3
2015-09-25T11:19:21.843Z,62.4
2015-09-25T11:20:21.798Z,63
2015-09-25T11:21:21.770Z,62.9
2015-09-25T11:22:21.710Z,62.6
2015-09-25T11:23:21.650Z,62.9
2015-09-25T11:24:21.606Z,62.7
2015-09-25T11:25:21.796Z,63.3
2015-09-25T11:26:21.517Z,61.9
2015-09-25T11:27:21.457Z,60.9
2015-09-25T11:28:21.403Z,61.8
2015-09-25T11:29:21.359Z,62.2
2015-09-25T11:30:21.314Z,61.5
2015-09-25T11:31:21.270Z,60.6
2015-09-25T11:32:21.226Z,61.3
2015-09-25T11:33:21.166Z,61.2
2015-09-25T11:34:21.106Z,61.1
2015-09-25T11:35:21.062Z,59.8
2015-09-25T11:36:21.019Z,58.8
2015-09-25T11:37:20.974Z,59.1
2015-09-25T11:38:21.492Z,59.2
2015-09-25T11:39:20.870Z,57.4
2015-09-25T11:40:20.841Z,59.3
2015-09-25T11:41:20.767Z,58.9
2015-09-25T11:42:20.738Z,58.2
2015-09-25T11:43:20.675Z,59.4
2015-09-25T11:44:20.630Z,59.4
2015-09-25T11:45:20.822Z,59.6
2015-09-25T11:46:20.527Z,58.8
2015-09-25T11:47:20.483Z,59.5
2015-09-25T11:48:20.424Z,58.6
2015-09-25T11:49:20.394Z,59.4
2015-09-25T11:50:20.335Z,58.7
2015-09-25T11:51:20.291Z,58.2
2015-09-25T11:52:20.246Z,57.2
2015-09-25T11:53:20.203Z,58
2015-09-25T11:54:20.143Z,57.7
2015-09-25T11:55:20.098Z,59.1
2015-09-25T11:56:20.039Z,57.8
2015-09-25T11:57:20.229Z,58.1
2015-09-25T11:58:19.951Z,56.1
2015-09-25T11:59:19.891Z,56.5
2015-09-25T12:00:19.847Z,56.7
2015-09-25T12:01:20.037Z,56.9
2015-09-25T12:02:19.758Z,57.5
2015-09-25T12:03:19.698Z,57.6
2015-09-25T12:04:19.654Z,57.8
2015-09-25T12:05:19.845Z,55.8
2015-09-25T12:06:19.551Z,53.7
2015-09-25T12:07:19.506Z,55.2
2015-09-25T12:08:19.462Z,53.4
2015-09-25T12:09:19.402Z,53.3
2015-09-25T12:10:19.374Z,52.6
2015-09-25T12:11:19.315Z,52.8
2015-09-25T12:12:19.254Z,52.7
2015-09-25T12:13:19.210Z,50.9
2015-09-25T12:14:19.165Z,52.3
2015-09-25T12:15:19.123Z,51.3
2015-09-25T12:16:19.062Z,51.6
2015-09-25T12:17:19.503Z,53.4
2015-09-25T12:18:18.973Z,54.3
2015-09-25T12:19:18.914Z,54
2015-09-25T12:20:18.870Z,52.5
2015-09-25T12:21:18.810Z,53.8
2015-09-25T12:22:18.766Z,54.9
2015-09-25T12:23:18.722Z,54.8
2015-09-25T12:24:18.678Z,55.3
2015-09-25T12:25:18.634Z,57.5
2015-09-25T12:26:18.573Z,55.1
2015-09-25T12:27:18.530Z,55.7
2015-09-25T12:28:18.470Z,55.5
2015-09-25T12:29:18.425Z,55.5
2015-09-25T12:30:18.381Z,55.8
2015-09-25T12:31:18.337Z,56.4
2015-09-25T12:32:18.278Z,55.3
2015-09-25T12:33:18.249Z,54.1
2015-09-25T12:34:18.189Z,55
2015-09-25T12:35:18.145Z,56.6
2015-09-25T12:36:18.100Z,55.5
2015-09-25T12:37:18.041Z,55.6
2015-09-25T12:38:18.013Z,53.3
2015-09-25T12:39:18.438Z,55.5
2015-09-25T12:40:17.894Z,55.7
2015-09-25T12:41:17.849Z,56.1
2015-09-25T12:42:17.805Z,56.1
2015-09-25T12:43:17.744Z,55.7
2015-09-25T12:44:17.716Z,57.4
2015-09-25T12:45:17.657Z,55.2
2015-09-25T12:46:17.613Z,55.8
2015-09-25T12:47:17.569Z,56.1
2015-09-25T12:48:17.524Z,52.1
2015-09-25T12:49:17.465Z,53.9
2015-09-25T12:50:17.421Z,52.1
2015-09-25T12:51:17.376Z,53.2
2015-09-25T12:52:17.329Z,51.9
2015-09-25T12:53:17.285Z,52.3
2015-09-25T12:54:17.226Z,52
2015-09-25T12:55:17.181Z,51.5
2015-09-25T12:56:17.121Z,54.5
2015-09-25T12:57:17.077Z,54.6
2015-09-25T12:58:17.283Z,54.1
2015-09-25T12:59:17.224Z,52.2
2015-09-25T13:00:16.946Z,50.6
2015-09-25T13:01:16.885Z,52.1
2015-09-25T13:02:16.684Z,53.2
2015-09-25T13:03:16.796Z,53.4
2015-09-25T13:04:16.737Z,52.4
2015-09-25T13:05:16.693Z,53
2015-09-25T13:06:16.634Z,51.9
2015-09-25T13:07:16.605Z,54
2015-09-25T13:08:16.545Z,55.7
2015-09-25T13:09:16.501Z,55.8
2015-09-25T13:10:16.456Z,56.3
2015-09-25T13:11:16.397Z,53.4
2015-09-25T13:12:16.353Z,53.6
2015-09-25T13:13:16.308Z,54.2
2015-09-25T13:14:16.248Z,54.3
2015-09-25T13:15:16.220Z,55
2015-09-25T13:16:16.161Z,54.6
2015-09-25T13:17:16.132Z,53.4
2015-09-25T13:18:16.072Z,53.5
2015-09-25T13:19:16.028Z,54.5
2015-09-25T13:20:16.202Z,55.7
2015-09-25T13:21:15.925Z,53.4
2015-09-25T13:22:15.724Z,52.7
2015-09-25T13:23:15.684Z,52.6
2015-09-25T13:24:15.799Z,51.5